createdAt,value
2019-05-11T00:00:21.215Z,20.6
2019-05-11T00:02:20.838Z,20.6
2019-05-11T00:04:21.040Z,20.7
2019-05-11T00:06:20.687Z,20.8
2019-05-11T00:08:20.559Z,20.7
2019-05-11T00:10:23.399Z,20.7
2019-05-11T00:12:20.669Z,20.7
2019-05-11T00:14:20.542Z,20.6
2019-05-11T00:16:20.324Z,20.6
2019-05-11T00:18:20.943Z,20.6
2019-05-11T00:20:20.397Z,20.5
2019-05-11T00:22:20.012Z,20.5
2019-05-11T00:24:19.843Z,20.5
2019-05-11T00:26:20.268Z,20.5
2019-05-11T00:28:19.960Z,20.5
2019-05-11T00:30:20.030Z,20.5
2019-05-11T00:32:22.738Z,20.5
2019-05-11T00:34:19.509Z,20.5
2019-05-11T00:36:19.921Z,20.5
2019-05-11T00:38:19.486Z,20.5
2019-05-11T00:40:19.600Z,20.5
2019-05-11T00:42:19.309Z,20.5
2019-05-11T00:44:19.309Z,20.5
2019-05-11T00:46:19.376Z,20.3
2019-05-11T00:48:20.267Z,20.1
2019-05-11T00:50:19.264Z,20
2019-05-11T00:52:01.093Z,20
2019-05-11T00:52:01.218Z,20
2019-05-11T00:52:19.228Z,19.9
2019-05-11T00:54:19.193Z,19.8
2019-05-11T00:56:18.852Z,19.7
2019-05-11T00:58:18.926Z,19.6
2019-05-11T01:00:19.080Z,19.6
2019-05-11T01:02:18.882Z,19.6
2019-05-11T01:04:18.794Z,19.6
2019-05-11T01:06:18.570Z,19.6
2019-05-11T01:08:18.413Z,19.7
2019-05-11T01:10:25.471Z,19.7
2019-05-11T01:12:19.327Z,19.8
2019-05-11T01:14:18.470Z,19.8
2019-05-11T01:16:19.278Z,19.7
2019-05-11T01:18:18.005Z,19.8
2019-05-11T01:20:18.718Z,19.8
2019-05-11T01:22:18.303Z,19.8
2019-05-11T01:24:17.856Z,19.7
2019-05-11T01:26:17.827Z,19.7
2019-05-11T01:28:17.652Z,19.7
2019-05-11T01:30:17.784Z,19.8
2019-05-11T01:32:17.512Z,19.8
2019-05-11T01:34:17.378Z,19.8
2019-05-11T01:36:17.409Z,19.8
2019-05-11T01:38:17.170Z,19.8
2019-05-11T01:40:17.324Z,19.8
2019-05-11T01:42:17.112Z,19.9
2019-05-11T01:44:16.868Z,19.9
2019-05-11T01:46:16.936Z,19.9
2019-05-11T01:48:17.863Z,19.9
2019-05-11T01:50:16.941Z,19.9
2019-05-11T01:52:17.807Z,19.9
2019-05-11T01:54:16.556Z,19.9
2019-05-11T01:56:16.465Z,19.9
2019-05-11T01:58:17.180Z,19.9
2019-05-11T02:00:16.703Z,19.9
2019-05-11T02:02:16.191Z,19.9
2019-05-11T02:04:16.287Z,19.9
2019-05-11T02:06:16.167Z,20
2019-05-11T02:08:16.002Z,20
2019-05-11T02:10:16.748Z,20
2019-05-11T02:12:15.931Z,20
2019-05-11T02:14:15.749Z,20
2019-05-11T02:16:16.036Z,20
2019-05-11T02:18:15.886Z,20
2019-05-11T02:20:15.908Z,20
2019-05-11T02:22:15.777Z,20
2019-05-11T02:24:15.402Z,20.1
2019-05-11T02:26:15.419Z,20.1
2019-05-11T02:28:15.313Z,20.1
2019-05-11T02:30:15.915Z,20.1
2019-05-11T02:32:15.143Z,20.2
2019-05-11T02:34:15.496Z,20.2
2019-05-11T02:36:15.003Z,20.3
2019-05-11T02:38:14.874Z,20.3
2019-05-11T02:40:15.815Z,20.3
2019-05-11T02:42:14.878Z,20.3
2019-05-11T02:44:14.657Z,20.3
2019-05-11T02:46:14.740Z,20.4
2019-05-11T02:48:14.531Z,20.4
2019-05-11T02:50:14.526Z,20.4
2019-05-11T02:52:14.904Z,20.5
2019-05-11T02:54:15.032Z,20.5
2019-05-11T02:56:14.205Z,20.5
2019-05-11T02:58:14.143Z,20.5
2019-05-11T03:00:20.537Z,20.5
2019-05-11T03:02:13.933Z,20.5
2019-05-11T03:04:14.067Z,20.5
2019-05-11T03:06:13.853Z,20.5
2019-05-11T03:08:13.841Z,20.5
2019-05-11T03:10:13.910Z,20.4
2019-05-11T03:12:13.705Z,20.4
2019-05-11T03:14:13.525Z,20.3
2019-05-11T03:16:13.498Z,20.3
2019-05-11T03:18:13.541Z,20.3
2019-05-11T03:20:13.542Z,20.4
2019-05-11T03:28:13.758Z,20.5
2019-05-11T03:30:13.440Z,20.5
2019-05-11T03:32:13.627Z,20.5
2019-05-11T03:34:12.854Z,20.4
2019-05-11T03:36:12.675Z,20.4
2019-05-11T03:38:12.774Z,20.4
2019-05-11T03:40:13.658Z,20.5
2019-05-11T03:42:14.979Z,20.5
2019-05-11T03:44:12.511Z,20.5
2019-05-11T03:46:12.239Z,20.6
2019-05-11T03:48:12.186Z,20.6
2019-05-11T03:50:12.594Z,20.7
2019-05-11T03:52:12.162Z,20.8
2019-05-11T03:54:11.988Z,20.8
2019-05-11T03:56:11.799Z,20.8
2019-05-11T03:58:12.493Z,20.8
2019-05-11T04:00:11.965Z,20.9
2019-05-11T04:02:11.592Z,20.9
2019-05-11T04:04:15.974Z,20.9
2019-05-11T04:06:11.551Z,20.9
2019-05-11T04:08:11.531Z,20.9
2019-05-11T04:10:12.007Z,20.9
2019-05-11T04:12:11.292Z,21
2019-05-11T04:14:11.206Z,21
2019-05-11T04:16:11.177Z,21.1
2019-05-11T04:18:11.080Z,21.2
2019-05-11T04:20:11.269Z,21.3
2019-05-11T04:22:11.109Z,21.4
2019-05-11T04:24:11.088Z,21.4
2019-05-11T04:26:11.643Z,21.5
2019-05-11T04:28:10.709Z,21.6
2019-05-11T04:30:11.667Z,21.8
2019-05-11T04:32:10.549Z,22
2019-05-11T04:34:10.676Z,22
2019-05-11T04:36:11.023Z,22.1
2019-05-11T04:38:10.473Z,22.2
2019-05-11T04:40:11.010Z,22.3
2019-05-11T04:42:10.448Z,22.3
2019-05-11T04:44:10.349Z,22.4
2019-05-11T04:46:10.976Z,22.3
2019-05-11T04:48:10.336Z,22.2
2019-05-11T04:50:10.966Z,22.2
2019-05-11T04:52:10.345Z,22.3
2019-05-11T04:54:10.242Z,22.3
2019-05-11T04:56:10.251Z,22.3
2019-05-11T04:58:10.337Z,22.4
2019-05-11T05:00:11.891Z,22.6
2019-05-11T05:02:10.192Z,22.7
2019-05-11T05:04:14.242Z,22.7
2019-05-11T05:06:22.193Z,22.7
2019-05-11T05:08:10.200Z,22.7
2019-05-11T05:10:14.003Z,22.7
2019-05-11T05:12:14.019Z,22.6
2019-05-11T05:14:10.424Z,22.5
2019-05-11T05:16:09.727Z,22.5
2019-05-11T05:18:10.833Z,22.4
2019-05-11T05:20:10.306Z,22.4
2019-05-11T05:22:09.680Z,22.4
2019-05-11T05:24:09.616Z,22.6
2019-05-11T05:26:09.753Z,22.6
2019-05-11T05:28:09.608Z,22.7
2019-05-11T05:30:11.466Z,22.8
2019-05-11T05:32:09.641Z,23
2019-05-11T05:34:09.479Z,23.2
2019-05-11T05:36:09.547Z,23.2
2019-05-11T05:38:09.589Z,23.4
2019-05-11T05:40:10.130Z,23.4
2019-05-11T05:42:09.604Z,23.5
2019-05-11T05:44:09.713Z,23.6
2019-05-11T05:46:09.846Z,23.6
2019-05-11T05:48:09.424Z,23.7
2019-05-11T05:50:10.357Z,23.6
2019-05-11T05:52:09.610Z,23.6
2019-05-11T05:54:09.450Z,23.6
2019-05-11T05:56:09.716Z,23.7
2019-05-11T05:58:09.564Z,23.8
2019-05-11T06:00:10.104Z,23.8
2019-05-11T06:02:10.481Z,23.9
2019-05-11T06:06:09.488Z,23.9
2019-05-11T06:08:09.539Z,23.9
2019-05-11T06:10:10.305Z,23.9
2019-05-11T06:12:09.473Z,23.9
2019-05-11T06:14:09.597Z,23.9
2019-05-11T06:16:09.496Z,24
2019-05-11T06:18:10.297Z,23.9
2019-05-11T06:20:09.965Z,23.9
2019-05-11T06:22:09.542Z,23.9
2019-05-11T06:24:09.427Z,23.9
2019-05-11T06:26:09.901Z,23.9
2019-05-11T06:28:09.367Z,24
2019-05-11T06:30:09.764Z,24
2019-05-11T06:32:09.435Z,23.9
2019-05-11T06:34:10.445Z,23.8
2019-05-11T06:36:09.455Z,23.6
2019-05-11T06:38:09.391Z,23.5
2019-05-11T06:40:09.741Z,23.5
2019-05-11T06:42:09.564Z,23.4
2019-05-11T06:44:09.457Z,23.6
2019-05-11T06:46:09.456Z,23.7
2019-05-11T06:48:09.538Z,23.8
2019-05-11T06:50:10.006Z,23.9
2019-05-11T06:52:09.393Z,23.8
2019-05-11T06:54:09.871Z,23.8
2019-05-11T06:56:09.579Z,23.7
2019-05-11T06:58:09.352Z,23.7
2019-05-11T07:00:10.196Z,23.8
2019-05-11T07:02:09.459Z,24
2019-05-11T07:04:09.384Z,23.9
2019-05-11T07:06:09.385Z,23.8
2019-05-11T07:08:09.482Z,23.6
2019-05-11T07:10:10.980Z,23.4
2019-05-11T07:12:09.687Z,23.3
2019-05-11T07:14:20.164Z,23.2
2019-05-11T07:16:09.616Z,23.1
2019-05-11T07:18:09.451Z,22.9
2019-05-11T07:20:09.754Z,22.6
2019-05-11T07:22:09.339Z,22.6
2019-05-11T07:24:09.442Z,22.8
2019-05-11T07:26:09.585Z,22.9
2019-05-11T07:28:09.443Z,23
2019-05-11T07:30:10.149Z,22.9
2019-05-11T07:32:20.021Z,23
2019-05-11T07:34:09.497Z,22.7
2019-05-11T07:36:09.485Z,22.6
2019-05-11T07:38:09.482Z,22.6
2019-05-11T07:40:10.063Z,22.6
2019-05-11T07:42:09.416Z,22.6
2019-05-11T07:44:10.084Z,22.5
2019-05-11T07:46:10.711Z,22.7
2019-05-11T07:48:09.351Z,22.6
2019-05-11T07:50:09.790Z,22.4
2019-05-11T07:52:09.548Z,22.4
2019-05-11T07:54:09.285Z,22.4
2019-05-11T07:56:09.086Z,22.4
2019-05-11T07:58:09.817Z,22.4
2019-05-11T08:00:09.954Z,22.5
2019-05-11T08:02:09.212Z,22.4
2019-05-11T08:04:09.109Z,22.5
2019-05-11T08:06:09.150Z,22.7
2019-05-11T08:08:09.212Z,22.9
2019-05-11T08:10:09.625Z,22.9
2019-05-11T08:12:09.124Z,23.1
2019-05-11T08:14:09.078Z,23.1
2019-05-11T08:16:09.090Z,23.1
2019-05-11T08:18:09.029Z,23.1
2019-05-11T08:20:09.439Z,23.2
2019-05-11T08:22:09.061Z,23.2
2019-05-11T08:24:09.439Z,23.4
2019-05-11T08:26:09.536Z,23.3
2019-05-11T08:28:12.008Z,22.9
2019-05-11T08:30:10.626Z,22.7
2019-05-11T08:32:08.925Z,22.5
2019-05-11T08:34:09.136Z,22.5
2019-05-11T08:36:09.577Z,22.6
2019-05-11T08:38:09.228Z,22.7
2019-05-11T08:40:10.615Z,22.8
2019-05-11T08:42:09.046Z,23.1
2019-05-11T08:44:09.140Z,23.2
2019-05-11T08:46:09.367Z,23.2
2019-05-11T08:48:08.949Z,23.1
2019-05-11T08:50:09.414Z,23
2019-05-11T08:52:09.099Z,23.2
2019-05-11T08:54:09.190Z,23.3
2019-05-11T08:56:13.020Z,23.4
2019-05-11T08:58:09.525Z,23.4
2019-05-11T09:00:13.436Z,23.2
2019-05-11T09:02:09.007Z,23.2
2019-05-11T09:04:09.244Z,23.4
2019-05-11T09:06:08.993Z,23.4
2019-05-11T09:08:09.023Z,23.5
2019-05-11T09:10:09.204Z,23.5
2019-05-11T09:12:08.897Z,23.3
2019-05-11T09:14:09.115Z,23.2
2019-05-11T09:16:09.077Z,23
2019-05-11T09:18:09.090Z,23
2019-05-11T09:20:11.003Z,23
2019-05-11T09:22:08.994Z,23.1
2019-05-11T09:24:08.951Z,23.1
2019-05-11T09:26:09.018Z,23
2019-05-11T09:28:08.884Z,22.9
2019-05-11T09:30:09.641Z,22.9
2019-05-11T09:32:09.011Z,22.9
2019-05-11T09:34:09.214Z,23
2019-05-11T09:36:08.993Z,23
2019-05-11T09:38:08.983Z,23.2
2019-05-11T09:40:09.139Z,23.1
2019-05-11T09:42:08.947Z,23.1
2019-05-11T09:44:09.176Z,23.1
2019-05-11T09:46:08.865Z,23.2
2019-05-11T09:48:08.841Z,23.2
2019-05-11T09:50:09.298Z,23
2019-05-11T09:52:08.908Z,23
2019-05-11T09:54:09.116Z,22.8
2019-05-11T09:56:09.916Z,22.9
2019-05-11T09:58:08.917Z,22.7
2019-05-11T10:00:09.978Z,22.5
2019-05-11T10:02:08.939Z,22.4
2019-05-11T10:04:10.178Z,22.4
2019-05-11T10:06:08.887Z,22.4
2019-05-11T10:08:09.270Z,22.6
2019-05-11T10:10:09.645Z,22.6
2019-05-11T10:12:08.983Z,22.6
2019-05-11T10:14:08.817Z,22.5
2019-05-11T10:16:10.630Z,22.5
2019-05-11T10:18:08.748Z,22.6
2019-05-11T10:20:09.591Z,22.8
2019-05-11T10:22:08.851Z,22.8
2019-05-11T10:24:08.924Z,23
2019-05-11T10:26:08.681Z,23.2
2019-05-11T10:28:08.856Z,23.5
2019-05-11T10:30:09.663Z,23.6
2019-05-11T10:32:08.810Z,23.7
2019-05-11T10:34:08.892Z,23.8
2019-05-11T10:36:08.858Z,24
2019-05-11T10:38:09.201Z,24.2
2019-05-11T10:40:09.804Z,24.3
2019-05-11T10:42:08.833Z,24.5
2019-05-11T10:44:08.746Z,24.6
2019-05-11T10:46:19.563Z,24.7
2019-05-11T10:48:08.997Z,24.5
2019-05-11T10:50:10.379Z,24.5
2019-05-11T10:52:09.866Z,24.5
2019-05-11T10:54:08.984Z,24.3
2019-05-11T10:56:08.967Z,24.2
2019-05-11T10:58:09.075Z,24.3
2019-05-11T11:00:09.865Z,24.4
2019-05-11T11:02:09.186Z,24.6
2019-05-11T11:04:08.994Z,24.6
2019-05-11T11:06:09.250Z,25
2019-05-11T11:08:09.239Z,25.1
2019-05-11T11:10:10.423Z,25
2019-05-11T11:12:09.371Z,25
2019-05-11T11:14:09.304Z,25
2019-05-11T11:16:10.148Z,24.8
2019-05-11T11:18:09.353Z,24.6
2019-05-11T11:20:10.172Z,24.5
2019-05-11T11:22:33.283Z,24.6
2019-05-11T11:24:09.508Z,24.6
2019-05-11T11:26:09.629Z,24.4
2019-05-11T11:28:09.748Z,24.4
2019-05-11T11:30:11.726Z,24.4
2019-05-11T11:32:09.986Z,24.5
2019-05-11T11:34:10.659Z,24.4
2019-05-11T11:36:09.734Z,24.4
2019-05-11T11:38:10.987Z,24.3
2019-05-11T11:40:11.044Z,24.4
2019-05-11T11:42:09.947Z,24.5
2019-05-11T11:44:10.102Z,24.7
2019-05-11T11:46:10.151Z,24.3
2019-05-11T11:48:10.307Z,24.1
2019-05-11T11:50:10.444Z,24.1
2019-05-11T11:52:10.275Z,24.1
2019-05-11T11:54:10.570Z,24
2019-05-11T11:56:10.209Z,24
2019-05-11T11:58:10.413Z,24
2019-05-11T12:00:11.660Z,23.9
2019-05-11T12:02:10.389Z,23.9
2019-05-11T12:04:10.400Z,23.9
2019-05-11T12:06:10.383Z,24.1
2019-05-11T12:08:10.571Z,24.7
2019-05-11T12:10:13.035Z,24.6
2019-05-11T12:12:10.925Z,24.4
2019-05-11T12:14:11.317Z,24.2
2019-05-11T12:16:10.772Z,24
2019-05-11T12:18:10.689Z,23.9
2019-05-11T12:20:11.130Z,23.6
2019-05-11T12:22:10.904Z,23.4
2019-05-11T12:24:10.647Z,23.4
2019-05-11T12:26:10.728Z,23.6
2019-05-11T12:28:10.821Z,23.8
2019-05-11T12:30:11.179Z,23.8
2019-05-11T12:32:10.862Z,23.7
2019-05-11T12:34:10.890Z,23.6
2019-05-11T12:36:10.793Z,23.5
2019-05-11T12:38:10.897Z,23.4
2019-05-11T12:40:11.259Z,23.4
2019-05-11T12:42:10.860Z,23.3
2019-05-11T12:44:10.871Z,23.4
2019-05-11T12:46:11.222Z,23.7
2019-05-11T12:48:10.948Z,24.1
2019-05-11T12:50:11.416Z,24.2
2019-05-11T12:52:11.185Z,24.3
2019-05-11T12:54:11.089Z,24.4
2019-05-11T12:56:11.319Z,24.4
2019-05-11T12:58:11.125Z,24.3
2019-05-11T13:00:13.099Z,24.2
2019-05-11T13:02:11.324Z,24
2019-05-11T13:04:13.467Z,23.8
2019-05-11T13:06:11.633Z,23.7
2019-05-11T13:08:11.345Z,23.6
2019-05-11T13:10:11.802Z,23.6
2019-05-11T13:12:11.628Z,23.4
2019-05-11T13:14:11.645Z,23.1
2019-05-11T13:16:11.650Z,23.2
2019-05-11T13:18:11.518Z,23.8
2019-05-11T13:20:13.018Z,24.4
2019-05-11T13:22:12.119Z,25
2019-05-11T13:24:11.788Z,25.2
2019-05-11T13:26:13.515Z,25.3
2019-05-11T13:28:11.782Z,25.2
2019-05-11T13:30:12.261Z,25.2
2019-05-11T13:32:12.976Z,25
2019-05-11T13:34:12.116Z,24.7
2019-05-11T13:36:12.136Z,24.7
2019-05-11T13:38:12.298Z,24.6
2019-05-11T13:40:12.766Z,24.7
2019-05-11T13:42:12.656Z,24.8
2019-05-11T13:44:12.832Z,25
2019-05-11T13:46:13.787Z,25
2019-05-11T13:48:12.673Z,24.9
2019-05-11T13:50:13.261Z,24.7
2019-05-11T13:52:12.800Z,24.6
2019-05-11T13:54:12.808Z,24.5
2019-05-11T13:56:12.888Z,25.1
2019-05-11T13:58:12.897Z,25.4
2019-05-11T14:00:13.627Z,26.3
2019-05-11T14:02:13.135Z,27.6
2019-05-11T14:04:13.374Z,28.7
2019-05-11T14:06:13.471Z,29.7
2019-05-11T14:08:13.493Z,30.5
2019-05-11T14:10:14.111Z,31
2019-05-11T14:12:13.992Z,31.4
2019-05-11T14:14:14.352Z,32
2019-05-11T14:16:14.290Z,32.3
2019-05-11T14:18:14.698Z,32.6
2019-05-11T14:20:15.545Z,32.7
2019-05-11T14:22:15.273Z,32.7
2019-05-11T14:24:15.547Z,32.5
2019-05-11T14:26:15.980Z,32.8
2019-05-11T14:28:17.964Z,32.8
2019-05-11T14:30:18.806Z,32.7
2019-05-11T14:32:17.859Z,32.1
2019-05-11T14:34:18.240Z,32.1
2019-05-11T14:36:18.432Z,32.3
2019-05-11T14:38:18.751Z,32.3
2019-05-11T14:40:18.289Z,32.5
2019-05-11T14:42:22.077Z,32.4
2019-05-11T14:44:18.705Z,32.4
2019-05-11T14:46:19.161Z,32.4
2019-05-11T14:48:26.733Z,32.4
2019-05-11T14:50:19.558Z,32.5
2019-05-11T14:52:19.794Z,32.5
2019-05-11T14:54:20.063Z,32.3
2019-05-11T14:56:20.428Z,32.2
2019-05-11T14:58:20.537Z,31.8
2019-05-11T15:00:20.889Z,32
2019-05-11T15:02:21.022Z,32.1
2019-05-11T15:04:21.319Z,32.2
2019-05-11T15:06:21.756Z,32.4
2019-05-11T15:08:21.816Z,32.6
2019-05-11T15:10:22.398Z,32.9
2019-05-11T15:12:22.501Z,33.2
2019-05-11T15:14:22.770Z,33.5
2019-05-11T15:16:23.030Z,33.6
2019-05-11T15:18:35.176Z,33.3
2019-05-11T15:20:24.746Z,33.4
2019-05-11T15:22:23.941Z,33.3
2019-05-11T15:24:24.257Z,33.1
2019-05-11T15:26:24.449Z,32.9
2019-05-11T15:28:25.503Z,32.9
2019-05-11T15:30:25.115Z,32.6
2019-05-11T15:32:25.340Z,32.8
2019-05-11T15:34:28.837Z,32.5
2019-05-11T15:36:28.395Z,32.5
2019-05-11T15:38:28.301Z,32.4
2019-05-11T15:40:27.889Z,32.7
2019-05-11T15:42:28.659Z,32.7
2019-05-11T15:44:28.584Z,32.6
2019-05-11T15:46:28.252Z,32.6
2019-05-11T15:48:27.475Z,32.7
2019-05-11T15:50:29.044Z,32.7
2019-05-11T15:52:27.945Z,32.8
2019-05-11T15:54:28.843Z,32.7
2019-05-11T15:56:29.542Z,32.7
2019-05-11T15:58:29.155Z,32.9
2019-05-11T16:00:29.109Z,32.6
2019-05-11T16:02:29.377Z,32.5
2019-05-11T16:04:30.314Z,32.3
2019-05-11T16:06:29.944Z,32.1
2019-05-11T16:08:31.139Z,31.8
2019-05-11T16:10:30.321Z,31.8
2019-05-11T16:12:30.655Z,31.7
2019-05-11T16:14:31.699Z,31.2
2019-05-11T16:16:31.140Z,31
2019-05-11T16:18:31.414Z,30.6
2019-05-11T16:20:31.850Z,30.5
2019-05-11T16:22:31.774Z,29.9
2019-05-11T16:24:33.003Z,29.3
2019-05-11T16:26:32.659Z,28.5
2019-05-11T16:28:32.199Z,27.8
2019-05-11T16:30:32.381Z,27.4
2019-05-11T16:32:32.602Z,26.9
2019-05-11T16:34:32.507Z,26.2
2019-05-11T16:36:32.798Z,25.8
2019-05-11T16:38:32.803Z,25.3
2019-05-11T16:40:32.866Z,24.8
2019-05-11T16:42:33.005Z,24.5
2019-05-11T16:44:33.587Z,24
2019-05-11T16:46:32.969Z,23.5
2019-05-11T16:48:32.988Z,23.2
2019-05-11T16:50:33.124Z,23
2019-05-11T16:52:33.204Z,22.8
2019-05-11T16:54:33.024Z,22.5
2019-05-11T16:56:32.886Z,22.3
2019-05-11T16:58:32.918Z,22.1
2019-05-11T17:00:33.343Z,21.9
2019-05-11T17:02:33.946Z,21.7
2019-05-11T17:04:32.942Z,21.6
2019-05-11T17:06:33.000Z,21.4
2019-05-11T17:08:32.705Z,21.2
2019-05-11T17:10:32.923Z,21.1
2019-05-11T17:12:32.657Z,21
2019-05-11T17:14:32.798Z,20.9
2019-05-11T17:16:32.623Z,20.7
2019-05-11T17:18:32.638Z,20.7
2019-05-11T17:20:32.558Z,20.5
2019-05-11T17:22:32.234Z,20.4
2019-05-11T17:24:32.295Z,20.3
2019-05-11T17:26:32.277Z,20.2
2019-05-11T17:28:32.169Z,20.1
2019-05-11T17:30:32.239Z,20
2019-05-11T17:32:32.373Z,19.9
2019-05-11T17:34:33.359Z,19.8
2019-05-11T17:36:32.087Z,19.8
2019-05-11T17:38:31.719Z,19.8
2019-05-11T17:40:31.854Z,19.8
2019-05-11T17:42:31.822Z,19.8
2019-05-11T17:44:31.618Z,19.8
2019-05-11T17:45:40.972Z,19.8
2019-05-11T17:46:40.232Z,19.8
2019-05-11T17:46:40.342Z,19.8
2019-05-11T17:48:31.598Z,19.8
2019-05-11T17:48:48.569Z,19.8
2019-05-11T17:50:03.698Z,19.8
2019-05-11T17:50:46.053Z,19.8
2019-05-11T17:52:31.790Z,19.8
2019-05-11T17:54:25.372Z,19.8
2019-05-11T17:54:31.269Z,19.7
2019-05-11T17:55:12.173Z,19.7
2019-05-11T17:55:41.559Z,19.7
2019-05-11T17:56:32.389Z,19.7
2019-05-11T17:56:39.003Z,19.7
2019-05-11T17:57:27.721Z,19.7
2019-05-11T17:57:27.736Z,19.7
2019-05-11T17:58:30.792Z,19.7
2019-05-11T18:00:14.072Z,19.7
2019-05-11T18:00:31.541Z,19.6
2019-05-11T18:02:31.719Z,19.5
2019-05-11T18:04:31.194Z,19.6
2019-05-11T18:06:24.726Z,19.6
2019-05-11T18:07:46.609Z,19.6
2019-05-11T18:07:47.309Z,19.6
2019-05-11T18:08:50.624Z,19.7
2019-05-11T18:08:50.929Z,19.7
2019-05-11T18:09:42.987Z,19.7
2019-05-11T18:10:30.409Z,19.8
2019-05-11T18:12:30.453Z,19.8
2019-05-11T18:13:39.125Z,19.8
2019-05-11T18:14:10.442Z,19.8
2019-05-11T18:14:39.580Z,19.9
2019-05-11T18:14:39.678Z,19.9
2019-05-11T18:15:41.139Z,19.9
2019-05-11T18:16:58.875Z,19.9
2019-05-11T18:16:58.944Z,19.9
2019-05-11T18:18:09.430Z,19.9
2019-05-11T18:18:29.939Z,19.8
2019-05-11T18:20:24.739Z,19.8
2019-05-11T18:21:25.062Z,19.7
2019-05-11T18:21:25.130Z,19.7
2019-05-11T18:21:49.740Z,19.7
2019-05-11T18:22:33.333Z,19.7
2019-05-11T18:24:28.527Z,19.7
2019-05-11T18:24:29.631Z,19.6
2019-05-11T18:26:30.073Z,19.6
2019-05-11T18:28:31.136Z,19.6
2019-05-11T18:29:41.150Z,19.6
2019-05-11T18:30:47.962Z,19.7
2019-05-11T18:30:48.017Z,19.7
2019-05-11T18:31:52.073Z,19.7
2019-05-11T18:32:29.522Z,19.7
2019-05-11T18:34:29.651Z,19.8
2019-05-11T18:34:30.125Z,19.8
2019-05-11T18:36:30.650Z,19.8
2019-05-11T18:38:30.208Z,19.8
2019-05-11T18:40:30.174Z,19.8
2019-05-11T18:42:28.985Z,19.8
2019-05-11T18:44:28.998Z,19.7
2019-05-11T18:46:29.160Z,19.5
2019-05-11T18:48:38.603Z,19.5
2019-05-11T18:48:43.860Z,19.4
2019-05-11T18:50:31.192Z,19.4
2019-05-11T18:52:29.840Z,19.3
2019-05-11T18:54:28.253Z,19.2
2019-05-11T18:56:28.648Z,19.3
2019-05-11T18:58:29.619Z,19.1
2019-05-11T19:00:28.417Z,19.2
2019-05-11T19:02:28.508Z,19.2
2019-05-11T19:04:28.710Z,19.2
2019-05-11T19:06:28.592Z,19.2
2019-05-11T19:08:28.138Z,19.1
2019-05-11T19:10:27.890Z,19.1
2019-05-11T19:12:28.092Z,19.1
2019-05-11T19:14:29.910Z,19
2019-05-11T19:16:28.769Z,18.9
2019-05-11T19:18:28.164Z,18.9
2019-05-11T19:20:28.458Z,18.8
2019-05-11T19:22:30.085Z,18.6
2019-05-11T19:24:27.859Z,18.6
2019-05-11T19:26:26.998Z,18.5
2019-05-11T19:28:28.125Z,18.5
2019-05-11T19:30:27.718Z,18.4
2019-05-11T19:32:32.026Z,18.5
2019-05-11T19:34:28.144Z,18.4
2019-05-11T19:36:27.759Z,18.4
2019-05-11T19:38:28.026Z,18.2
2019-05-11T19:40:26.708Z,18.2
2019-05-11T19:42:28.377Z,18.2
2019-05-11T19:44:27.960Z,18.1
2019-05-11T19:46:28.042Z,18
2019-05-11T19:48:27.858Z,18
2019-05-11T19:50:25.665Z,17.9
2019-05-11T19:52:28.125Z,17.9
2019-05-11T19:54:25.373Z,17.9
2019-05-11T19:56:25.297Z,17.8
2019-05-11T19:58:25.187Z,17.8
2019-05-11T20:00:27.480Z,17.8
2019-05-11T20:02:40.562Z,17.8
2019-05-11T20:02:40.647Z,17.8
2019-05-11T20:03:38.418Z,17.8
2019-05-11T20:04:24.256Z,17.8
2019-05-11T20:04:39.520Z,17.8
2019-05-11T20:04:39.732Z,17.8
2019-05-11T20:06:27.920Z,17.8
2019-05-11T20:06:47.843Z,17.8
2019-05-11T20:07:22.533Z,17.8
2019-05-11T20:08:25.169Z,17.7
2019-05-11T20:09:23.880Z,17.7
2019-05-11T20:10:24.457Z,17.6
2019-05-11T20:12:24.491Z,17.6
2019-05-11T20:14:25.344Z,17.6
2019-05-11T20:16:24.014Z,17.6
2019-05-11T20:18:23.889Z,17.5
2019-05-11T20:20:23.795Z,17.5
2019-05-11T20:22:23.738Z,17.5
2019-05-11T20:24:25.174Z,17.5
2019-05-11T20:26:23.488Z,17.5
2019-05-11T20:28:23.446Z,17.3
2019-05-11T20:30:23.330Z,17.3
2019-05-11T20:32:38.856Z,17.3
2019-05-11T20:32:38.875Z,17.3
2019-05-11T20:34:25.004Z,17.3
2019-05-11T20:36:23.135Z,17.2
2019-05-11T20:36:42.683Z,17.2
2019-05-11T20:38:22.802Z,17.1
2019-05-11T20:40:22.792Z,17.1
2019-05-11T20:42:24.650Z,17.1
2019-05-11T20:44:22.524Z,17
2019-05-11T20:46:15.363Z,17
2019-05-11T20:46:24.165Z,17
2019-05-11T20:48:22.261Z,17
2019-05-11T20:50:22.040Z,16.9
2019-05-11T20:52:22.962Z,16.9
2019-05-11T20:54:23.391Z,16.9
2019-05-11T20:54:23.620Z,16.9
2019-05-11T20:56:28.243Z,16.8
2019-05-11T20:57:39.410Z,16.8
2019-05-11T20:58:34.116Z,16.8
2019-05-11T20:58:35.598Z,16.8
2019-05-11T21:00:21.816Z,16.8
2019-05-11T21:02:25.233Z,16.7
2019-05-11T21:03:03.706Z,16.7
2019-05-11T21:04:21.603Z,16.8
2019-05-11T21:06:21.079Z,16.7
2019-05-11T21:08:20.943Z,16.6
2019-05-11T21:09:58.355Z,16.6
2019-05-11T21:10:20.791Z,16.6
2019-05-11T21:10:41.645Z,16.6
2019-05-11T21:10:41.694Z,16.6
2019-05-11T21:12:21.128Z,16.6
2019-05-11T21:14:21.808Z,16.6
2019-05-11T21:14:50.762Z,16.6
2019-05-11T21:14:50.900Z,16.6
2019-05-11T21:15:53.979Z,16.6
2019-05-11T21:15:54.037Z,16.6
2019-05-11T21:16:20.284Z,16.5
2019-05-11T21:18:20.521Z,16.5
2019-05-11T21:20:20.439Z,16.5
2019-05-11T21:22:19.849Z,16.5
2019-05-11T21:24:19.611Z,16.5
2019-05-11T21:26:20.651Z,16.4
2019-05-11T21:28:19.833Z,16.4
2019-05-11T21:30:19.400Z,16.3
2019-05-11T21:32:39.710Z,16.3
2019-05-11T21:32:39.833Z,16.3
2019-05-11T21:34:19.221Z,16.3
2019-05-11T21:36:18.915Z,16.2
2019-05-11T21:38:18.782Z,16.2
2019-05-11T21:40:19.288Z,16.2
2019-05-11T21:42:18.395Z,16.1
2019-05-11T21:44:22.143Z,16.1
2019-05-11T21:46:18.277Z,16.1
2019-05-11T21:48:18.041Z,16
2019-05-11T21:50:19.039Z,16
2019-05-11T21:52:18.923Z,16
2019-05-11T21:54:17.534Z,16
2019-05-11T21:56:18.711Z,16
2019-05-11T21:58:18.215Z,16
2019-05-11T22:00:23.093Z,15.9
2019-05-11T22:02:18.492Z,15.9
2019-05-11T22:04:19.165Z,16
2019-05-11T22:05:25.083Z,16
2019-05-11T22:05:32.050Z,16
2019-05-11T22:05:32.425Z,16
2019-05-11T22:06:16.701Z,15.9
2019-05-11T22:08:17.903Z,15.9
2019-05-11T22:10:17.774Z,15.9
2019-05-11T22:12:18.759Z,15.9
2019-05-11T22:14:16.115Z,15.9
2019-05-11T22:16:16.151Z,15.8
2019-05-11T22:18:28.263Z,15.7
2019-05-11T22:20:18.400Z,15.7
2019-05-11T22:22:22.482Z,15.7
2019-05-11T22:24:15.302Z,15.6
2019-05-11T22:26:14.785Z,15.6
2019-05-11T22:26:18.839Z,15.6
2019-05-11T22:28:17.525Z,15.5
2019-05-11T22:30:15.038Z,15.5
2019-05-11T22:32:14.759Z,15.5
2019-05-11T22:34:17.791Z,15.5
2019-05-11T22:36:14.657Z,15.4
2019-05-11T22:38:15.651Z,15.4
2019-05-11T22:40:14.685Z,15.4
2019-05-11T22:42:15.293Z,15.4
2019-05-11T22:44:18.142Z,15.3
2019-05-11T22:46:13.911Z,15.3
2019-05-11T22:48:13.650Z,15.3
2019-05-11T22:50:14.211Z,15.3
2019-05-11T22:52:14.173Z,15.2
2019-05-11T22:54:13.879Z,15.3
2019-05-11T22:56:13.239Z,15.2
2019-05-11T22:58:12.848Z,15.2
2019-05-11T23:00:14.010Z,15.1
2019-05-11T23:02:12.496Z,15.1
2019-05-11T23:04:12.345Z,15.1
2019-05-11T23:06:14.256Z,15.1
2019-05-11T23:08:13.555Z,15.1
2019-05-11T23:10:12.041Z,15.1
2019-05-11T23:12:13.239Z,15.1
2019-05-11T23:14:11.657Z,15
2019-05-11T23:16:11.475Z,14.9
2019-05-11T23:18:11.410Z,15
2019-05-11T23:20:11.985Z,15
2019-05-11T23:22:10.868Z,14.9
2019-05-11T23:24:19.078Z,14.9
2019-05-11T23:26:10.805Z,15
2019-05-11T23:28:10.430Z,14.9
2019-05-11T23:30:10.751Z,14.9
2019-05-11T23:32:11.031Z,14.9
2019-05-11T23:34:09.850Z,14.9
2019-05-11T23:36:09.784Z,14.8
2019-05-11T23:38:09.426Z,14.8
2019-05-11T23:40:11.338Z,14.7
2019-05-11T23:42:09.008Z,14.8
2019-05-11T23:44:09.057Z,14.7
2019-05-11T23:46:08.976Z,14.8
2019-05-11T23:48:08.768Z,14.7
2019-05-11T23:50:09.089Z,14.8
2019-05-11T23:52:08.431Z,14.8
2019-05-11T23:54:08.300Z,14.8
2019-05-11T23:56:08.164Z,14.7
2019-05-11T23:58:08.478Z,14.7
